createdAt,value
2023-01-02T00:00:40.438Z,8.20
2023-01-02T00:01:43.592Z,8.29
2023-01-02T00:02:46.498Z,8.26
2023-01-02T00:03:49.510Z,8.20
2023-01-02T00:04:52.296Z,8.20
2023-01-02T00:05:55.105Z,8.26
2023-01-02T00:06:58.756Z,8.24
2023-01-02T00:08:01.735Z,8.31
2023-01-02T00:09:06.212Z,8.26
2023-01-02T00:10:08.999Z,8.21
2023-01-02T00:11:11.978Z,8.27
2023-01-02T00:12:14.735Z,8.29
2023-01-02T00:13:17.805Z,8.25
2023-01-02T00:14:20.575Z,8.24
2023-01-02T00:15:23.624Z,8.26
2023-01-02T00:16:27.038Z,8.23
2023-01-02T00:17:29.894Z,8.26
2023-01-02T00:18:34.193Z,8.29
2023-01-02T00:19:36.983Z,8.29
2023-01-02T00:20:39.884Z,8.27
2023-01-02T00:21:42.743Z,8.32
2023-01-02T00:22:45.651Z,8.27
2023-01-02T00:23:48.410Z,8.18
2023-01-02T00:24:51.201Z,8.20
2023-01-02T00:25:54.008Z,8.24
2023-01-02T00:26:56.990Z,8.19
2023-01-02T00:27:59.927Z,8.25
2023-01-02T00:29:02.838Z,8.30
2023-01-02T00:30:06.331Z,8.26
2023-01-02T00:31:11.782Z,8.25
2023-01-02T00:32:15.217Z,8.23
2023-01-02T00:33:18.236Z,8.16
2023-01-02T00:34:21.116Z,8.15
2023-01-02T00:35:23.998Z,8.06
2023-01-02T00:36:27.982Z,8.06
2023-01-02T00:37:31.003Z,8.08
2023-01-02T00:38:37.980Z,8.03
2023-01-02T00:39:41.363Z,8.03
2023-01-02T00:40:44.416Z,8.00
2023-01-02T00:41:47.302Z,8.02
2023-01-02T00:42:50.184Z,8.06
2023-01-02T00:43:52.857Z,8.06
2023-01-02T00:44:55.804Z,8.01
2023-01-02T00:45:58.668Z,8.02
2023-01-02T00:47:01.880Z,8.00
2023-01-02T00:48:04.692Z,8.00
2023-01-02T00:49:07.723Z,7.96
2023-01-02T00:50:10.556Z,7.97
2023-01-02T00:51:13.411Z,8.01
2023-01-02T00:52:16.159Z,8.01
2023-01-02T00:53:19.399Z,8.01
2023-01-02T00:54:22.137Z,8.05
2023-01-02T00:55:25.301Z,8.07
2023-01-02T00:56:27.982Z,8.09
2023-01-02T00:57:30.866Z,8.01
2023-01-02T00:58:33.993Z,8.04
2023-01-02T00:59:36.747Z,8.00
2023-01-02T01:00:39.897Z,7.98
2023-01-02T01:01:43.051Z,8.00
2023-01-02T01:02:46.015Z,7.99
2023-01-02T01:03:49.312Z,7.99
2023-01-02T01:04:52.152Z,8.02
2023-01-02T01:05:54.877Z,8.02
2023-01-02T01:06:57.857Z,8.03
2023-01-02T01:08:00.825Z,8.02
2023-01-02T01:09:03.756Z,8.02
2023-01-02T01:10:07.404Z,8.00
2023-01-02T01:11:16.347Z,8.02
2023-01-02T01:12:19.152Z,7.99
2023-01-02T01:13:22.173Z,8.00
2023-01-02T01:14:25.128Z,7.94
2023-01-02T01:15:28.137Z,8.00
2023-01-02T01:16:31.160Z,7.99
2023-01-02T01:17:34.259Z,7.93
2023-01-02T01:18:38.171Z,7.98
2023-01-02T01:19:41.009Z,7.95
2023-01-02T01:20:43.742Z,7.94
2023-01-02T01:21:46.505Z,7.86
2023-01-02T01:22:49.384Z,7.84
2023-01-02T01:23:56.178Z,7.80
2023-01-02T01:24:59.126Z,7.76
2023-01-02T01:26:07.872Z,7.85
2023-01-02T01:27:10.785Z,7.86
2023-01-02T01:28:13.660Z,7.87
2023-01-02T01:29:16.527Z,7.80
2023-01-02T01:30:19.391Z,7.74
2023-01-02T01:31:23.469Z,7.70
2023-01-02T01:32:26.285Z,7.79
2023-01-02T01:33:31.193Z,7.81
2023-01-02T01:34:34.277Z,7.81
2023-01-02T01:35:37.116Z,7.81
2023-01-02T01:36:40.117Z,7.76
2023-01-02T01:37:42.772Z,7.77
2023-01-02T01:38:46.785Z,7.78
2023-01-02T01:39:53.945Z,7.77
2023-01-02T01:40:59.464Z,7.75
2023-01-02T01:42:02.697Z,7.76
2023-01-02T01:43:13.700Z,7.83
2023-01-02T01:45:04.816Z,7.94
2023-01-02T01:46:15.771Z,7.86
2023-01-02T01:47:40.434Z,7.77
2023-01-02T01:48:48.614Z,7.73
2023-01-02T01:50:04.707Z,7.84
2023-01-02T01:51:08.902Z,7.83
2023-01-02T01:52:16.291Z,7.92
2023-01-02T01:53:22.202Z,7.84
2023-01-02T01:54:31.457Z,7.86
2023-01-02T01:55:39.419Z,7.82
2023-01-02T01:56:51.019Z,7.83
2023-01-02T01:57:59.625Z,7.79
2023-01-02T01:59:03.526Z,7.77
2023-01-02T02:00:06.905Z,7.68
2023-01-02T02:01:15.268Z,7.72
2023-01-02T02:02:18.640Z,7.69
2023-01-02T02:03:27.021Z,7.70
2023-01-02T02:04:29.904Z,7.76
2023-01-02T02:05:33.943Z,7.68
2023-01-02T02:06:37.296Z,7.72
2023-01-02T02:07:47.025Z,7.66
2023-01-02T02:09:02.725Z,7.63
2023-01-02T02:10:10.238Z,7.63
2023-01-02T02:11:14.335Z,7.73
2023-01-02T02:12:20.650Z,7.73
2023-01-02T02:13:26.163Z,7.70
2023-01-02T02:14:28.908Z,7.75
2023-01-02T02:15:44.019Z,7.72
2023-01-02T02:17:04.577Z,7.65
2023-01-02T02:18:52.375Z,7.59
2023-01-02T02:20:26.616Z,7.55
2023-01-02T02:22:07.172Z,7.54
2023-01-02T02:23:25.483Z,7.48
2023-01-02T02:25:10.031Z,7.48
2023-01-02T02:26:19.140Z,7.41
2023-01-02T02:27:27.860Z,7.37
2023-01-02T02:28:42.081Z,7.37
2023-01-02T02:30:00.016Z,7.35
2023-01-02T02:31:20.809Z,7.31
2023-01-02T02:32:56.728Z,7.39
2023-01-02T02:34:19.629Z,7.49
2023-01-02T02:35:49.415Z,7.49
2023-01-02T02:37:29.145Z,7.45
2023-01-02T02:38:42.010Z,7.44
2023-01-02T02:40:08.526Z,7.36
2023-01-02T02:41:33.601Z,7.31
2023-01-02T02:43:01.340Z,7.33
2023-01-02T02:44:25.956Z,7.27
2023-01-02T02:45:55.281Z,7.20
2023-01-02T02:47:49.563Z,7.17
2023-01-02T02:49:08.358Z,7.20
2023-01-02T02:50:20.219Z,7.16
2023-01-02T02:51:43.692Z,7.12
2023-01-02T02:53:02.688Z,7.08
2023-01-02T02:54:13.317Z,7.09
2023-01-02T02:55:24.936Z,7.03
2023-01-02T02:56:28.947Z,7.03
2023-01-02T02:57:32.706Z,7.02
2023-01-02T02:58:37.687Z,6.98
2023-01-02T02:59:42.472Z,7.02
2023-01-02T03:00:45.572Z,7.07
2023-01-02T03:01:48.589Z,7.04
2023-01-02T03:02:51.577Z,7.03
2023-01-02T03:03:54.459Z,7.00
2023-01-02T03:05:03.339Z,6.99
2023-01-02T03:06:18.270Z,6.97
2023-01-02T03:07:24.502Z,7.03
2023-01-02T03:08:36.910Z,7.00
2023-01-02T03:09:55.121Z,7.01
2023-01-02T03:11:02.856Z,7.02
2023-01-02T03:12:25.367Z,7.19
2023-01-02T03:13:49.806Z,7.24
2023-01-02T03:15:14.736Z,7.18
2023-01-02T03:16:28.379Z,7.33
2023-01-02T03:18:05.919Z,7.37
2023-01-02T03:19:44.439Z,7.29
2023-01-02T03:21:03.329Z,7.38
2023-01-02T03:22:33.909Z,7.45
2023-01-02T03:23:44.966Z,7.29
2023-01-02T03:24:51.098Z,7.34
2023-01-02T03:25:55.214Z,7.36
2023-01-02T03:27:05.285Z,7.28
2023-01-02T03:28:10.676Z,7.21
2023-01-02T03:29:18.533Z,7.23
2023-01-02T03:30:22.897Z,7.24
2023-01-02T03:31:28.812Z,7.19
2023-01-02T03:32:38.216Z,7.13
2023-01-02T03:33:46.057Z,7.05
2023-01-02T03:34:50.856Z,7.03
2023-01-02T03:35:59.172Z,7.05
2023-01-02T03:37:07.370Z,7.01
2023-01-02T03:38:20.676Z,7.04
2023-01-02T03:39:31.832Z,7.07
2023-01-02T03:40:41.279Z,7.08
2023-01-02T03:41:58.356Z,7.05
2023-01-02T03:43:11.160Z,7.03
2023-01-02T03:44:17.358Z,7.14
2023-01-02T03:45:28.733Z,7.18
2023-01-02T03:46:35.146Z,7.21
2023-01-02T03:47:50.386Z,7.22
2023-01-02T03:49:02.622Z,7.11
2023-01-02T03:50:12.723Z,7.06
2023-01-02T03:51:15.934Z,7.01
2023-01-02T03:52:25.658Z,6.98
2023-01-02T03:53:30.350Z,6.94
2023-01-02T03:54:33.463Z,6.94
2023-01-02T03:55:39.609Z,6.92
2023-01-02T03:56:57.949Z,6.91
2023-01-02T03:58:06.569Z,6.93
2023-01-02T03:59:18.114Z,6.95
2023-01-02T04:00:22.196Z,6.93
2023-01-02T04:01:40.419Z,6.95
2023-01-02T04:02:54.039Z,6.96
2023-01-02T04:04:04.589Z,6.97
2023-01-02T04:05:16.054Z,6.95
2023-01-02T04:06:24.026Z,6.94
2023-01-02T04:07:57.232Z,6.92
2023-01-02T04:09:07.367Z,6.94
2023-01-02T04:10:13.340Z,6.95
2023-01-02T04:11:20.787Z,6.96
2023-01-02T04:12:25.691Z,6.98
2023-01-02T04:13:49.193Z,6.94
2023-01-02T04:14:59.455Z,6.99
2023-01-02T04:16:04.995Z,6.97
2023-01-02T04:17:08.857Z,6.97
2023-01-02T04:18:46.213Z,6.95
2023-01-02T04:20:01.300Z,6.93
2023-01-02T04:21:11.883Z,7.00
2023-01-02T04:22:20.980Z,6.96
2023-01-02T04:23:39.504Z,7.00
2023-01-02T04:24:47.812Z,7.05
2023-01-02T04:26:07.571Z,7.07
2023-01-02T04:27:20.752Z,7.07
2023-01-02T04:28:28.710Z,7.17
2023-01-02T04:29:32.307Z,7.14
2023-01-02T04:30:43.246Z,7.12
2023-01-02T04:32:19.458Z,7.12
2023-01-02T04:33:25.267Z,7.11
2023-01-02T04:34:31.811Z,7.03
2023-01-02T04:35:35.339Z,7.17
2023-01-02T04:36:39.938Z,7.07
2023-01-02T04:37:43.883Z,7.03
2023-01-02T04:38:49.122Z,7.07
2023-01-02T04:39:53.650Z,7.11
2023-01-02T04:41:02.856Z,7.05
2023-01-02T04:42:05.766Z,6.96
2023-01-02T04:43:18.786Z,6.88
2023-01-02T04:44:21.641Z,6.84
2023-01-02T04:45:24.442Z,6.86
2023-01-02T04:46:29.467Z,6.88
2023-01-02T04:47:32.732Z,6.97
2023-01-02T04:48:38.611Z,6.96
2023-01-02T04:49:42.013Z,6.93
2023-01-02T04:50:45.321Z,6.86
2023-01-02T04:51:48.140Z,6.83
2023-01-02T04:52:51.080Z,6.82
2023-01-02T04:53:54.727Z,6.80
2023-01-02T04:54:57.428Z,6.82
2023-01-02T04:56:00.444Z,6.81
2023-01-02T04:57:03.410Z,6.82
2023-01-02T04:58:06.787Z,6.81
2023-01-02T04:59:09.877Z,6.83
2023-01-02T05:00:13.171Z,6.81
2023-01-02T05:01:18.739Z,6.81
2023-01-02T05:02:21.664Z,6.84
2023-01-02T05:03:24.579Z,6.83
2023-01-02T05:04:27.473Z,6.81
2023-01-02T05:05:31.232Z,6.82
2023-01-02T05:06:34.093Z,6.92
2023-01-02T05:07:37.951Z,6.96
2023-01-02T05:08:41.322Z,6.93
2023-01-02T05:09:44.164Z,6.92
2023-01-02T05:10:47.073Z,7.00
2023-01-02T05:11:50.695Z,6.99
2023-01-02T05:12:53.511Z,6.93
2023-01-02T05:13:56.429Z,6.91
2023-01-02T05:14:59.215Z,6.93
2023-01-02T05:16:02.226Z,7.00
2023-01-02T05:17:05.089Z,7.05
2023-01-02T05:18:08.748Z,7.14
2023-01-02T05:19:12.763Z,7.25
2023-01-02T05:20:15.994Z,7.21
2023-01-02T05:21:37.969Z,7.21
2023-01-02T05:23:01.538Z,7.08
2023-01-02T05:24:04.874Z,7.07
2023-01-02T05:25:09.537Z,6.99
2023-01-02T05:26:13.287Z,6.98
2023-01-02T05:27:16.291Z,6.94
2023-01-02T05:28:21.563Z,7.00
2023-01-02T05:29:24.479Z,7.12
2023-01-02T05:30:27.441Z,7.17
2023-01-02T05:31:31.043Z,7.17
2023-01-02T05:32:34.137Z,7.17
2023-01-02T05:33:37.058Z,7.14
2023-01-02T05:34:39.912Z,7.12
2023-01-02T05:35:42.942Z,7.13
2023-01-02T05:36:45.940Z,7.15
2023-01-02T05:37:48.699Z,7.13
2023-01-02T05:38:52.896Z,7.09
2023-01-02T05:39:55.901Z,7.17
2023-01-02T05:41:06.919Z,7.20
2023-01-02T05:42:09.692Z,7.16
2023-01-02T05:43:12.601Z,7.12
2023-01-02T05:44:15.425Z,7.17
2023-01-02T05:45:18.266Z,7.22
2023-01-02T05:46:21.487Z,7.15
2023-01-02T05:47:24.596Z,7.12
2023-01-02T05:48:28.644Z,7.05
2023-01-02T05:49:31.802Z,7.06
2023-01-02T05:50:34.965Z,7.06
2023-01-02T05:51:38.530Z,7.12
2023-01-02T05:52:45.556Z,7.05
2023-01-02T05:53:48.941Z,7.08
2023-01-02T05:54:51.792Z,7.15
2023-01-02T05:55:54.528Z,7.09
2023-01-02T05:56:57.430Z,7.13
2023-01-02T05:58:02.517Z,7.03
2023-01-02T05:59:08.534Z,6.97
2023-01-02T06:00:12.006Z,6.92
2023-01-02T06:01:16.380Z,6.90
2023-01-02T06:02:19.370Z,6.88
2023-01-02T06:03:22.364Z,6.86
2023-01-02T06:04:25.350Z,6.87
2023-01-02T06:05:28.055Z,6.84
2023-01-02T06:06:34.493Z,6.82
2023-01-02T06:07:37.425Z,6.82
2023-01-02T06:08:41.181Z,6.80
2023-01-02T06:09:44.075Z,6.78
2023-01-02T06:10:53.125Z,6.81
2023-01-02T06:11:56.584Z,6.79
2023-01-02T06:12:59.350Z,6.78
2023-01-02T06:14:02.193Z,6.79
2023-01-02T06:15:05.220Z,6.74
2023-01-02T06:16:10.154Z,6.71
2023-01-02T06:17:13.273Z,6.69
2023-01-02T06:18:16.123Z,6.74
2023-01-02T06:19:18.929Z,6.71
2023-01-02T06:20:21.846Z,6.69
2023-01-02T06:21:24.960Z,6.68
2023-01-02T06:22:27.972Z,6.64
2023-01-02T06:23:31.310Z,6.56
2023-01-02T06:24:34.121Z,6.57
2023-01-02T06:25:36.987Z,6.54
2023-01-02T06:26:39.891Z,6.53
2023-01-02T06:27:42.657Z,6.47
2023-01-02T06:28:54.706Z,6.42
2023-01-02T06:29:57.526Z,6.42
2023-01-02T06:31:13.528Z,6.39
2023-01-02T06:32:16.419Z,6.33
2023-01-02T06:33:19.178Z,6.30
2023-01-02T06:34:24.775Z,6.29
2023-01-02T06:35:27.721Z,6.33
2023-01-02T06:36:32.666Z,6.32
2023-01-02T06:37:35.513Z,6.32
2023-01-02T06:38:39.050Z,6.31
2023-01-02T06:39:42.025Z,6.33
2023-01-02T06:40:55.796Z,6.35
2023-01-02T06:41:58.677Z,6.39
2023-01-02T06:43:01.459Z,6.38
2023-01-02T06:44:04.262Z,6.40
2023-01-02T06:45:07.693Z,6.44
2023-01-02T06:46:12.070Z,6.47
2023-01-02T06:47:15.153Z,6.64
2023-01-02T06:48:19.988Z,6.69
2023-01-02T06:49:22.742Z,6.67
2023-01-02T06:50:32.812Z,6.64
2023-01-02T06:51:37.611Z,6.83
2023-01-02T06:52:40.503Z,6.72
2023-01-02T06:53:43.938Z,6.68
2023-01-02T06:54:46.907Z,6.69
2023-01-02T06:55:53.386Z,6.83
2023-01-02T06:56:56.153Z,6.94
2023-01-02T06:58:03.263Z,6.86
2023-01-02T06:59:10.848Z,6.80
2023-01-02T07:00:14.240Z,6.77
2023-01-02T07:01:22.394Z,6.72
2023-01-02T07:02:25.436Z,6.69
2023-01-02T07:03:29.445Z,6.68
2023-01-02T07:04:32.630Z,6.65
2023-01-02T07:05:35.404Z,6.64
2023-01-02T07:06:38.327Z,6.62
2023-01-02T07:07:41.179Z,6.61
2023-01-02T07:08:45.060Z,6.60
2023-01-02T07:09:47.856Z,6.60
2023-01-02T07:10:52.999Z,6.60
2023-01-02T07:11:56.286Z,6.62
2023-01-02T07:12:59.253Z,6.70
2023-01-02T07:14:02.231Z,6.72
2023-01-02T07:15:06.712Z,6.72
2023-01-02T07:16:13.177Z,6.72
2023-01-02T07:17:16.118Z,6.72
2023-01-02T07:18:18.961Z,6.75
2023-01-02T07:19:21.797Z,6.79
2023-01-02T07:20:24.638Z,6.82
2023-01-02T07:21:27.617Z,6.83
2023-01-02T07:22:30.549Z,6.84
2023-01-02T07:23:33.581Z,6.87
2023-01-02T07:24:36.252Z,6.89
2023-01-02T07:25:44.212Z,6.90
2023-01-02T07:26:47.446Z,6.99
2023-01-02T07:27:50.400Z,7.00
2023-01-02T07:28:53.278Z,6.99
2023-01-02T07:29:56.758Z,6.99
2023-01-02T07:31:01.693Z,7.03
2023-01-02T07:32:04.908Z,7.03
2023-01-02T07:33:07.749Z,7.05
2023-01-02T07:34:10.839Z,7.06
2023-01-02T07:35:13.593Z,7.07
2023-01-02T07:36:19.446Z,7.06
2023-01-02T07:37:22.483Z,7.08
2023-01-02T07:38:26.421Z,7.12
2023-01-02T07:39:29.427Z,7.10
2023-01-02T07:40:35.244Z,7.10
2023-01-02T07:41:38.127Z,7.12
2023-01-02T07:42:42.298Z,7.13
2023-01-02T07:43:46.553Z,7.15
2023-01-02T07:44:49.551Z,7.19
2023-01-02T07:45:52.716Z,7.28
2023-01-02T07:46:55.570Z,7.28
2023-01-02T07:47:58.643Z,7.28
2023-01-02T07:49:05.328Z,7.29
2023-01-02T07:50:08.752Z,7.33
2023-01-02T07:51:22.672Z,7.36
2023-01-02T07:52:29.822Z,7.40
2023-01-02T07:53:33.389Z,7.45
2023-01-02T07:54:36.368Z,7.47
2023-01-02T07:55:39.255Z,7.52
2023-01-02T07:56:42.275Z,7.53
2023-01-02T07:57:48.316Z,7.55
2023-01-02T07:58:51.833Z,7.59
2023-01-02T07:59:54.739Z,7.66
2023-01-02T08:01:05.256Z,7.71
2023-01-02T08:02:11.526Z,7.74
2023-01-02T08:03:14.756Z,7.95
2023-01-02T08:04:17.637Z,7.96
2023-01-02T08:05:22.359Z,7.91
2023-01-02T08:06:25.585Z,7.90
2023-01-02T08:07:28.332Z,7.89
2023-01-02T08:08:31.634Z,7.92
2023-01-02T08:09:34.637Z,7.94
2023-01-02T08:10:38.075Z,7.94
2023-01-02T08:11:41.196Z,7.93
2023-01-02T08:12:44.108Z,8.01
2023-01-02T08:13:47.661Z,8.03
2023-01-02T08:14:50.533Z,8.04
2023-01-02T08:15:53.437Z,8.09
2023-01-02T08:16:56.351Z,8.12
2023-01-02T08:17:59.598Z,8.09
2023-01-02T08:19:02.516Z,8.09
2023-01-02T08:20:08.283Z,8.16
2023-01-02T08:21:12.107Z,8.27
2023-01-02T08:22:14.959Z,8.28
2023-01-02T08:23:17.757Z,8.36
2023-01-02T08:24:20.593Z,8.38
2023-01-02T08:25:23.384Z,8.37
2023-01-02T08:26:26.114Z,8.39
2023-01-02T08:27:29.438Z,8.40
2023-01-02T08:28:33.346Z,8.44
2023-01-02T08:29:36.303Z,8.50
2023-01-02T08:30:41.454Z,8.52
2023-01-02T08:31:44.414Z,8.61
2023-01-02T08:32:47.259Z,8.64
2023-01-02T08:33:50.184Z,8.64
2023-01-02T08:34:52.930Z,8.65
2023-01-02T08:35:56.803Z,8.69
2023-01-02T08:36:59.959Z,8.70
2023-01-02T08:38:03.059Z,8.74
2023-01-02T08:39:06.397Z,8.76
2023-01-02T08:40:09.810Z,8.78
2023-01-02T08:41:13.055Z,8.82
2023-01-02T08:42:15.985Z,8.83
2023-01-02T08:43:18.906Z,8.93
2023-01-02T08:44:21.793Z,8.91
2023-01-02T08:45:24.570Z,8.90
2023-01-02T08:46:28.798Z,8.91
2023-01-02T08:47:31.623Z,8.96
2023-01-02T08:48:36.024Z,9.00
2023-01-02T08:49:38.889Z,9.04
2023-01-02T08:50:41.811Z,9.11
2023-01-02T08:51:44.807Z,9.17
2023-01-02T08:52:47.715Z,9.18
2023-01-02T08:53:50.613Z,9.21
2023-01-02T08:54:53.398Z,9.23
2023-01-02T08:56:16.236Z,9.26
2023-01-02T08:57:19.266Z,9.30
2023-01-02T08:58:22.204Z,9.35
2023-01-02T08:59:26.303Z,9.39
2023-01-02T09:00:29.257Z,9.42
2023-01-02T09:01:33.398Z,9.43
2023-01-02T09:02:36.507Z,9.49
2023-01-02T09:03:39.590Z,9.52
2023-01-02T09:04:42.324Z,9.52
2023-01-02T09:05:45.172Z,9.55
2023-01-02T09:06:48.310Z,9.57
2023-01-02T09:07:51.304Z,9.58
2023-01-02T09:08:56.862Z,9.76
2023-01-02T09:09:59.917Z,9.83
2023-01-02T09:11:17.269Z,9.73
2023-01-02T09:12:20.341Z,9.71
2023-01-02T09:13:23.199Z,9.70
2023-01-02T09:14:26.036Z,9.71
2023-01-02T09:15:28.959Z,9.74
2023-01-02T09:16:32.767Z,9.75
2023-01-02T09:17:35.684Z,9.74
2023-01-02T09:18:40.059Z,9.77
2023-01-02T09:19:43.050Z,9.80
2023-01-02T09:20:46.038Z,9.77
2023-01-02T09:21:48.724Z,9.79
2023-01-02T09:22:51.566Z,9.88
2023-01-02T09:23:54.363Z,9.96
2023-01-02T09:24:57.188Z,9.98
2023-01-02T09:26:01.512Z,10.00
2023-01-02T09:27:04.412Z,10.03
2023-01-02T09:28:07.404Z,10.04
2023-01-02T09:29:12.420Z,10.05
2023-01-02T09:30:15.236Z,10.13
2023-01-02T09:31:19.527Z,10.14
2023-01-02T09:32:22.340Z,10.16
2023-01-02T09:33:25.172Z,10.15
2023-01-02T09:34:27.992Z,10.17
2023-01-02T09:35:30.743Z,10.35
2023-01-02T09:36:33.653Z,10.32
2023-01-02T09:37:36.358Z,10.28
2023-01-02T09:38:39.873Z,10.31
2023-01-02T09:39:42.622Z,10.35
2023-01-02T09:40:51.795Z,10.43
2023-01-02T09:41:59.225Z,10.61
2023-01-02T09:43:03.443Z,10.62
2023-01-02T09:44:37.663Z,10.68
2023-01-02T09:45:44.386Z,10.79
2023-01-02T09:46:56.190Z,10.84
2023-01-02T09:48:00.167Z,10.87
2023-01-02T09:49:04.055Z,10.91
2023-01-02T09:50:13.988Z,10.93
2023-01-02T09:51:16.970Z,10.96
2023-01-02T09:52:27.257Z,10.99
2023-01-02T09:53:31.985Z,11.05
2023-01-02T09:54:34.804Z,11.08
2023-01-02T09:56:04.703Z,11.09
2023-01-02T09:57:16.303Z,11.09
2023-01-02T09:59:07.261Z,11.10
2023-01-02T10:00:31.452Z,11.12
2023-01-02T10:01:34.198Z,11.10
2023-01-02T10:03:14.395Z,11.12
2023-01-02T10:04:32.585Z,11.17
2023-01-02T10:05:43.547Z,11.16
2023-01-02T10:07:01.272Z,11.23
2023-01-02T10:08:11.632Z,11.27
2023-01-02T10:09:53.143Z,11.27
2023-01-02T10:11:09.400Z,11.33
2023-01-02T10:12:21.270Z,11.43
2023-01-02T10:14:08.923Z,11.47
2023-01-02T10:15:04.937Z,11.53
2023-01-02T10:16:12.979Z,11.56
2023-01-02T10:17:17.610Z,11.58
2023-01-02T10:18:38.889Z,11.58
2023-01-02T10:20:01.245Z,11.63
2023-01-02T10:21:16.046Z,11.59
2023-01-02T10:22:31.699Z,11.62
2023-01-02T10:23:45.393Z,11.62
2023-01-02T10:25:01.731Z,11.66
2023-01-02T10:26:10.387Z,11.64
2023-01-02T10:27:23.180Z,11.62
2023-01-02T10:28:26.392Z,11.74
2023-01-02T10:29:30.654Z,11.83
2023-01-02T10:30:40.440Z,11.78
2023-01-02T10:31:55.595Z,11.77
2023-01-02T10:33:32.912Z,11.87
2023-01-02T10:34:54.950Z,11.86
2023-01-02T10:36:00.518Z,11.87
2023-01-02T10:37:08.000Z,11.87
2023-01-02T10:38:17.094Z,11.92
2023-01-02T10:39:28.173Z,11.89
2023-01-02T10:40:32.608Z,11.92
2023-01-02T10:41:36.592Z,11.87
2023-01-02T10:42:40.690Z,11.88
2023-01-02T10:43:48.524Z,11.91
2023-01-02T10:44:52.096Z,11.95
2023-01-02T10:45:55.143Z,12.03
2023-01-02T10:46:59.898Z,12.10
2023-01-02T10:48:02.821Z,12.03
2023-01-02T10:49:08.894Z,11.97
2023-01-02T10:50:29.470Z,12.02
2023-01-02T10:51:33.395Z,12.10
2023-01-02T10:52:46.750Z,12.17
2023-01-02T10:54:08.840Z,12.15
2023-01-02T10:55:11.737Z,12.08
2023-01-02T10:56:20.662Z,12.09
2023-01-02T10:57:51.410Z,11.99
2023-01-02T10:58:55.768Z,12.00
2023-01-02T11:00:01.141Z,11.95
2023-01-02T11:01:19.410Z,11.92
2023-01-02T11:02:54.022Z,11.92
2023-01-02T11:03:57.822Z,11.81
2023-01-02T11:05:02.968Z,11.78
2023-01-02T11:06:35.284Z,11.73
2023-01-02T11:07:49.439Z,11.72
2023-01-02T11:08:58.796Z,11.68
2023-01-02T11:10:01.609Z,11.64
2023-01-02T11:11:25.439Z,11.62
2023-01-02T11:12:28.513Z,11.54
2023-01-02T11:13:48.942Z,11.55
2023-01-02T11:15:12.471Z,11.51
2023-01-02T11:16:17.375Z,11.54
2023-01-02T11:17:22.775Z,11.59
2023-01-02T11:18:32.372Z,11.49
2023-01-02T11:19:44.943Z,11.52
2023-01-02T11:20:51.438Z,11.50
2023-01-02T11:21:54.455Z,11.59
2023-01-02T11:23:01.580Z,11.64
2023-01-02T11:24:16.432Z,11.58
2023-01-02T11:25:29.257Z,11.55
2023-01-02T11:26:38.770Z,11.55
2023-01-02T11:27:44.583Z,11.51
2023-01-02T11:28:50.999Z,11.51
2023-01-02T11:29:53.912Z,11.55
2023-01-02T11:31:09.632Z,11.56
2023-01-02T11:32:23.267Z,11.56
2023-01-02T11:33:28.930Z,11.53
2023-01-02T11:34:40.948Z,11.60
2023-01-02T11:35:50.687Z,11.59
2023-01-02T11:37:11.589Z,11.50
2023-01-02T11:38:29.486Z,11.54
2023-01-02T11:39:34.834Z,11.52
2023-01-02T11:40:37.577Z,11.48
2023-01-02T11:42:13.606Z,11.44
2023-01-02T11:43:37.224Z,11.45
2023-01-02T11:45:10.142Z,11.44
2023-01-02T11:46:23.598Z,11.44
2023-01-02T11:47:47.882Z,11.41
2023-01-02T11:48:54.333Z,11.34
2023-01-02T11:49:58.436Z,11.34
2023-01-02T11:51:01.101Z,11.38
2023-01-02T11:52:06.903Z,11.38
2023-01-02T11:53:12.560Z,11.39
2023-01-02T11:54:24.662Z,11.43
2023-01-02T11:55:42.056Z,11.43
2023-01-02T11:56:46.254Z,11.41
2023-01-02T11:58:23.626Z,11.36
2023-01-02T11:59:42.876Z,11.43
2023-01-02T12:00:50.151Z,11.49
2023-01-02T12:02:02.173Z,11.59
2023-01-02T12:03:18.881Z,11.58
2023-01-02T12:04:23.530Z,11.60
2023-01-02T12:05:39.225Z,11.55
2023-01-02T12:07:14.335Z,11.63
2023-01-02T12:08:36.349Z,11.60
2023-01-02T12:09:54.930Z,11.63
2023-01-02T12:11:00.440Z,11.67
2023-01-02T12:12:32.056Z,11.65
2023-01-02T12:14:04.170Z,11.64
2023-01-02T12:15:48.707Z,11.64
2023-01-02T12:16:59.158Z,11.60
2023-01-02T12:18:24.027Z,11.66
2023-01-02T12:19:38.748Z,11.68
2023-01-02T12:21:12.192Z,11.63
2023-01-02T12:22:43.021Z,11.69
2023-01-02T12:23:45.904Z,11.60
2023-01-02T12:25:36.478Z,11.62
2023-01-02T12:26:39.713Z,11.67
2023-01-02T12:28:01.882Z,11.69
2023-01-02T12:29:49.415Z,11.71
2023-01-02T12:31:29.418Z,11.66
2023-01-02T12:32:59.397Z,11.69
2023-01-02T12:34:07.852Z,11.66
2023-01-02T12:35:13.756Z,11.66
2023-01-02T12:36:25.975Z,11.67
2023-01-02T12:37:52.278Z,11.68
2023-01-02T12:39:21.140Z,11.72
2023-01-02T12:40:34.977Z,11.73
2023-01-02T12:42:02.570Z,11.72
2023-01-02T12:43:23.943Z,11.72
2023-01-02T12:44:47.080Z,11.75
2023-01-02T12:45:52.716Z,11.75
2023-01-02T12:47:13.885Z,11.74
2023-01-02T12:48:52.424Z,11.70
2023-01-02T12:50:33.790Z,11.72
2023-01-02T12:51:59.596Z,11.74
2023-01-02T12:53:14.497Z,11.71
2023-01-02T12:54:39.180Z,11.77
2023-01-02T12:56:11.291Z,11.84
2023-01-02T12:57:28.681Z,11.80
2023-01-02T12:58:51.991Z,11.79
2023-01-02T13:00:13.178Z,11.74
2023-01-02T13:01:29.577Z,11.70
2023-01-02T13:02:57.519Z,11.69
2023-01-02T13:04:13.994Z,11.64
2023-01-02T13:05:23.438Z,11.65
2023-01-02T13:06:48.140Z,11.66
2023-01-02T13:08:00.533Z,11.63
2023-01-02T13:09:26.468Z,11.61
2023-01-02T13:10:30.582Z,11.60
2023-01-02T13:11:42.869Z,11.64
2023-01-02T13:12:47.472Z,11.62
2023-01-02T13:13:51.135Z,11.65
2023-01-02T13:14:58.723Z,11.70
2023-01-02T13:16:20.689Z,11.66
2023-01-02T13:17:53.537Z,11.64
2023-01-02T13:19:12.020Z,11.70
2023-01-02T13:20:23.915Z,11.67
2023-01-02T13:21:58.401Z,11.64
2023-01-02T13:23:10.197Z,11.58
2023-01-02T13:24:22.269Z,11.62
2023-01-02T13:25:26.026Z,11.61
2023-01-02T13:26:32.041Z,11.55
2023-01-02T13:27:34.989Z,11.53
2023-01-02T13:29:06.980Z,11.49
2023-01-02T13:30:35.506Z,11.50
2023-01-02T13:31:50.164Z,11.50
2023-01-02T13:32:53.225Z,11.53
2023-01-02T13:33:56.751Z,11.54
2023-01-02T13:35:03.174Z,11.54
2023-01-02T13:36:24.250Z,11.53
2023-01-02T13:37:29.576Z,11.53
2023-01-02T13:38:36.588Z,11.55
2023-01-02T13:39:39.473Z,11.54
2023-01-02T13:40:42.791Z,11.54
2023-01-02T13:42:17.163Z,11.54
2023-01-02T13:43:28.150Z,11.56
2023-01-02T13:44:36.920Z,11.55
2023-01-02T13:45:47.909Z,11.55
2023-01-02T13:47:03.072Z,11.55
2023-01-02T13:48:20.960Z,11.54
2023-01-02T13:49:23.896Z,11.53
2023-01-02T13:50:38.492Z,11.49
2023-01-02T13:51:41.357Z,11.47
2023-01-02T13:52:57.052Z,11.51
2023-01-02T13:54:01.885Z,11.50
2023-01-02T13:55:21.241Z,11.46
2023-01-02T13:56:27.247Z,11.46
2023-01-02T13:57:33.695Z,11.48
2023-01-02T13:58:56.174Z,11.46
2023-01-02T13:59:58.965Z,11.44
2023-01-02T14:01:21.885Z,11.45
2023-01-02T14:02:24.916Z,11.43
2023-01-02T14:03:28.793Z,11.41
2023-01-02T14:04:34.932Z,11.39
2023-01-02T14:06:03.977Z,11.40
2023-01-02T14:07:25.091Z,11.37
2023-01-02T14:09:01.012Z,11.36
2023-01-02T14:10:10.018Z,11.36
2023-01-02T14:11:27.815Z,11.35
2023-01-02T14:12:30.616Z,11.37
2023-01-02T14:13:44.822Z,11.47
2023-01-02T14:14:52.842Z,11.42
2023-01-02T14:16:34.614Z,11.38
2023-01-02T14:17:47.323Z,11.32
2023-01-02T14:19:14.174Z,11.28
2023-01-02T14:20:32.685Z,11.27
2023-01-02T14:21:40.875Z,11.22
2023-01-02T14:22:48.242Z,11.19
2023-01-02T14:24:18.064Z,11.17
2023-01-02T14:25:14.408Z,11.16
2023-01-02T14:26:25.529Z,11.13
2023-01-02T14:27:32.041Z,11.08
2023-01-02T14:28:39.749Z,11.03
2023-01-02T14:29:59.069Z,11.00
2023-01-02T14:31:16.024Z,10.97
2023-01-02T14:32:29.983Z,10.95
2023-01-02T14:33:36.713Z,10.90
2023-01-02T14:34:48.199Z,10.85
2023-01-02T14:35:54.308Z,10.83
2023-01-02T14:37:00.668Z,10.79
2023-01-02T14:38:28.805Z,10.75
2023-01-02T14:39:34.110Z,10.70
2023-01-02T14:40:40.832Z,10.63
2023-01-02T14:42:11.398Z,10.58
2023-01-02T14:43:31.237Z,10.56
2023-01-02T14:44:48.678Z,10.48
2023-01-02T14:45:55.091Z,10.39
2023-01-02T14:46:58.693Z,10.32
2023-01-02T14:48:09.366Z,10.25
2023-01-02T14:49:25.666Z,10.20
2023-01-02T14:50:33.863Z,10.18
2023-01-02T14:51:46.788Z,10.13
2023-01-02T14:52:59.233Z,10.11
2023-01-02T14:54:22.917Z,10.07
2023-01-02T14:55:29.411Z,9.97
2023-01-02T14:56:36.843Z,9.94
2023-01-02T14:57:42.250Z,9.88
2023-01-02T14:58:48.474Z,9.80
2023-01-02T14:59:53.804Z,9.75
2023-01-02T15:01:04.241Z,9.71
2023-01-02T15:02:14.497Z,9.69
2023-01-02T15:03:35.234Z,9.68
2023-01-02T15:04:47.692Z,9.58
2023-01-02T15:06:13.785Z,9.55
2023-01-02T15:07:19.835Z,9.43
2023-01-02T15:08:34.499Z,9.36
2023-01-02T15:09:43.529Z,9.33
2023-01-02T15:11:21.611Z,9.27
2023-01-02T15:12:48.003Z,9.20